Terminal Aerodrome Forecast
Issued by NWS

Home | Current Version | Previous Version | Text Only | Print | Product List | Glossary On
Versions: 1 2 3 4 5 6 7 8 9 10 11 12 13 14 15 16 17 18 19 20 21 22 23 24 25 26 27 28 29 30 31 32 33 34 35 36 37 38 39 40
000
FTUS43 KFGF 210851 AAA
TAFTVF
TAF AMD
KTVF 210851Z 2109/2206 22006KT 3SM BR BKN003
      TEMPO 2109/2113 1/2SM FG SCT003
     FM211400 19009KT P6SM BKN080
     FM211600 20011KT P6SM SCT100=

USA.gov is the U.S. government's official web portal to all federal, state and local government web resources and services.